This is the latest recevied weather packets stored in our database for station/object NY3Q. If no packets are shown the sender has not sent any weather packets the latest 10 day(s).
| Time | Temp. | Humidity | Pressure | Rain* | Wind** | Luminosity | Snow |
|---|---|---|---|---|---|---|---|
| 1777390805 | 27.78° C | 65% | 1021.6 hPa | 0 mm | - | 163 W/m² | - |
| 1777390502 | 27.22° C | 66% | 1021.4 hPa | 0 mm | - | 559 W/m² | - |
| 1777390198 | 27.22° C | 64% | 1021.5 hPa | 0 mm | - | 282 W/m² | - |
| 1777389895 | 26.67° C | 67% | 1021.2 hPa | 0 mm | - | 354 W/m² | - |
| 1777389592 | 26.11° C | 68% | 1021.5 hPa | 0 mm | - | 242 W/m² | - |
| 1777389288 | 26.11° C | 68% | 1021.5 hPa | 0 mm | - | 192 W/m² | - |
| 1777388986 | 26.67° C | 67% | 1021.6 hPa | 0 mm | - | 611 W/m² | - |
| 1777388683 | 27.78° C | 67% | 1021.5 hPa | 0 mm | - | 155 W/m² | - |
| 1777388380 | 27.22° C | 65% | 1021.3 hPa | 0 mm | - | 564 W/m² | - |
| 1777388080 | 26.67° C | 69% | 1021.4 hPa | 0 mm | - | 602 W/m² | - |
| 1777387776 | 27.22° C | 68% | 1021 hPa | 0 mm | - | 162 W/m² | - |
| 1777387473 | 26.11° C | 69% | 1021.2 hPa | 0 mm | - | 546 W/m² | - |
| 1777387168 | 26.67° C | 69% | 1021.3 hPa | 0 mm | - | 509 W/m² | - |
| 1777386863 | 26.11° C | 72% | 1021.1 hPa | 0 mm | - | 530 W/m² | - |
| 1777386561 | 25° C | 75% | 1021.4 hPa | 0 mm | - | 554 W/m² | - |
| 1777386257 | 25° C | 76% | 1021.6 hPa | 0 mm | - | 510 W/m² | - |
| 1777385955 | 25° C | 76% | 1021.3 hPa | 0 mm | - | 215 W/m² | - |
| 1777385651 | 24.44° C | 76% | 1021.2 hPa | 0 mm | - | 134 W/m² | - |
| 1777385349 | 25.56° C | 73% | 1021.4 hPa | 0 mm | - | 156 W/m² | - |
| 1777385045 | 25.56° C | 75% | 1021.2 hPa | 0 mm | - | 421 W/m² | - |
| 1777384742 | 25° C | 78% | 1021.2 hPa | 0 mm | - | 265 W/m² | - |
| 1777384441 | 24.44° C | 77% | 1021.1 hPa | 0 mm | - | 227 W/m² | - |
| 1777384137 | 25° C | 75% | 1021 hPa | 0 mm | - | 183 W/m² | - |
| 1777383834 | 25.56° C | 76% | 1021.1 hPa | 0 mm | - | 298 W/m² | - |
| 1777383530 | 25° C | 78% | 1021 hPa | 0 mm | - | 388 W/m² | - |
* Rain latest hour (hover to see other rain measurements)
** Current wind speed in m/s (hover to see current wind gust speed)